Columbus City, Iowa
Current Conditions -  °F | °C
As of 12:15 PM on Thursday 23 Oct 2014 (Local Time) from KMUT Reporting Station
Overcast Overcast  
Wind Chill: 57°   Ceiling: 4000
Heat Index: 57°   Visibility: 10mi
Dew Point: 46°   Wind: 14mph
Humidity: 67%   Direction: 190°S
Pressure: 30.1"   Gusts: 22mph
Location:  41.26°N, 91.37°W
Report Text: KMUT 231715Z AUTO 19012G19KT 10SM SCT033 BKN040 OVC065 14/08 A3010 RMK AO2
Loading
Personal Weather Stations






























Interactive Weather Map
Tropical Storm Tracking
New forecast layout! Learn more

10-Day Weather Forecast

Advertisements
Track Severe Weather on mobile